Time;durP1;ratioP1;P1;durP2;ratioP2;P2;SDS_P1;SDS_P2;PMS_P1;PMS_P2;Temp;Humidity;BMP_temperature;BMP_pressure;BME280_temperature;BME280_humidity;BME280_pressure;Samples;Min_cycle;Max_cycle;Signal;HPM_P1;HPM_P2
2023/06/01 00:00:24;;;;;;;;;;;25.10;48.10;;;;;;5087516;27;42970;-78
2023/06/01 00:02:50;;;;;;;;;;;25.10;47.50;;;;;;5094322;27;42969;-79
2023/06/01 00:05:16;;;;;;;;;;;25.00;47.50;;;;;;5106645;27;42968;-79
2023/06/01 00:07:41;;;;;;;;;;;25.10;47.50;;;;;;5106470;27;42945;-79
2023/06/01 00:10:07;;;;;;;;;;;25.10;47.60;;;;;;5092043;27;43019;-77
2023/06/01 00:12:32;;;;;;;;;;;25.00;47.50;;;;;;5099114;27;43060;-79
2023/06/01 00:14:58;;;;;;;;;;;25.10;47.60;;;;;;5099618;27;42918;-79
2023/06/01 00:17:23;;;;;;;;;;;25.10;47.60;;;;;;5093929;27;42897;-77
2023/06/01 00:19:49;;;;;;;;;;;25.00;47.60;;;;;;5105295;27;43785;-77
2023/06/01 00:22:15;;;;;;;;;;;25.10;47.10;;;;;;5097090;27;42955;-80
2023/06/01 00:24:41;;;;;;;;;;;25.00;47.10;;;;;;5088651;27;43449;-79
2023/06/01 00:27:07;;;;;;;;;;;25.00;47.60;;;;;;5096936;27;43016;-79
2023/06/01 00:29:32;;;;;;;;;;;25.00;47.50;;;;;;5092474;27;43103;-78
2023/06/01 00:31:58;;;;;;;;;;;25.00;47.40;;;;;;5105935;27;43039;-80
2023/06/01 00:34:24;;;;;;;;;;;25.00;47.50;;;;;;5101177;27;44104;-80
2023/06/01 00:36:49;;;;;;;;;;;25.00;47.40;;;;;;5088539;27;43393;-80
2023/06/01 00:39:15;;;;;;;;;;;25.00;46.90;;;;;;5092190;27;44396;-76
2023/06/01 00:41:40;;;;;;;;;;;24.90;47.40;;;;;;5105334;27;42977;-80
2023/06/01 00:44:06;;;;;;;;;;;25.00;46.90;;;;;;5087341;27;43025;-78
2023/06/01 00:46:31;;;;;;;;;;;25.00;47.40;;;;;;5085331;27;43195;-80
2023/06/01 00:48:58;;;;;;;;;;;25.00;47.40;;;;;;5084151;27;42927;-79
2023/06/01 00:51:23;;;;;;;;;;;25.00;47.40;;;;;;5084807;27;43002;-79
2023/06/01 00:53:49;;;;;;;;;;;24.90;46.90;;;;;;5083999;27;43316;-80
2023/06/01 00:56:15;;;;;;;;;;;24.90;47.00;;;;;;5084984;27;43033;-80
2023/06/01 00:58:41;;;;;;;;;;;24.90;47.00;;;;;;5084956;27;42875;-80
2023/06/01 01:01:07;;;;;;;;;;;24.90;47.00;;;;;;5095704;27;42997;-80
2023/06/01 01:03:34;;;;;;;;;;;24.90;47.50;;;;;;5087655;27;43698;-79
2023/06/01 01:06:32;;;;;;;;;;;24.90;46.90;;;;;;5085532;27;42988;-78
2023/06/01 01:08:57;;;;;;;;;;;24.90;47.40;;;;;;5036585;27;43546;-80
2023/06/01 01:11:29;;;;;;;;;;;24.90;46.90;;;;;;5090589;27;42895;-80
2023/06/01 01:14:21;;;;;;;;;;;24.90;46.90;;;;;;5085499;27;43607;-80
2023/06/01 01:16:49;;;;;;;;;;;24.90;47.40;;;;;;5079312;27;43049;-81
2023/06/01 01:19:34;;;;;;;;;;;24.90;47.30;;;;;;5085379;27;42938;-77
2023/06/01 01:22:07;;;;;;;;;;;24.90;47.30;;;;;;5092767;27;43641;-81
2023/06/01 01:24:51;;;;;;;;;;;24.90;46.80;;;;;;5101211;27;42969;-79
2023/06/01 01:27:29;;;;;;;;;;;24.90;47.20;;;;;;5078553;27;42975;-78
2023/06/01 01:30:02;;;;;;;;;;;24.80;46.70;;;;;;5084346;27;42890;-80
2023/06/01 01:32:28;;;;;;;;;;;24.90;47.10;;;;;;5084806;27;43105;-80
2023/06/01 01:34:55;;;;;;;;;;;24.80;46.50;;;;;;5084420;27;43478;-79
2023/06/01 01:37:21;;;;;;;;;;;24.90;47.00;;;;;;5066475;27;42997;-79
2023/06/01 01:39:47;;;;;;;;;;;24.90;46.90;;;;;;5096819;27;43021;-80
2023/06/01 01:42:12;;;;;;;;;;;24.80;46.40;;;;;;5098985;27;43075;-79
2023/06/01 01:44:38;;;;;;;;;;;24.80;46.40;;;;;;5104194;27;43435;-80
2023/06/01 01:47:26;;;;;;;;;;;24.80;46.20;;;;;;5089474;27;42982;-80
2023/06/01 01:49:55;;;;;;;;;;;24.90;46.70;;;;;;5084347;27;43195;-80
2023/06/01 01:52:25;;;;;;;;;;;24.80;46.70;;;;;;5097319;27;43062;-80
2023/06/01 01:54:50;;;;;;;;;;;24.80;46.60;;;;;;5084527;27;43356;-81
2023/06/01 01:57:17;;;;;;;;;;;24.80;46.20;;;;;;5084810;27;43269;-79
2023/06/01 01:59:43;;;;;;;;;;;24.80;46.60;;;;;;5084533;27;43112;-79
2023/06/01 02:02:09;;;;;;;;;;;24.80;46.50;;;;;;5096933;27;42874;-80
2023/06/01 02:04:45;;;;;;;;;;;24.80;46.60;;;;;;5065659;28;43666;-78
2023/06/01 02:07:11;;;;;;;;;;;24.80;46.50;;;;;;5083274;27;43012;-80
2023/06/01 02:09:37;;;;;;;;;;;24.80;46.00;;;;;;5084202;27;42942;-79
2023/06/01 02:12:02;;;;;;;;;;;24.80;46.40;;;;;;5083877;27;42984;-79
2023/06/01 02:14:28;;;;;;;;;;;24.80;46.40;;;;;;5084387;27;43532;-79
2023/06/01 02:16:54;;;;;;;;;;;24.80;46.30;;;;;;5084529;27;42917;-80
2023/06/01 02:19:20;;;;;;;;;;;24.80;45.80;;;;;;5083735;27;43201;-79
2023/06/01 02:21:45;;;;;;;;;;;24.80;45.90;;;;;;5104192;27;43082;-79
2023/06/01 02:24:12;;;;;;;;;;;24.80;46.30;;;;;;5084824;27;43916;-79
2023/06/01 02:26:38;;;;;;;;;;;24.80;45.80;;;;;;5104094;27;42925;-81
2023/06/01 02:29:05;;;;;;;;;;;24.80;46.20;;;;;;5090557;27;42987;-80
2023/06/01 02:31:31;;;;;;;;;;;24.80;45.70;;;;;;5083168;27;43649;-80
2023/06/01 02:33:56;;;;;;;;;;;24.80;45.70;;;;;;5083605;27;42945;-79
2023/06/01 02:36:24;;;;;;;;;;;24.80;46.20;;;;;;5095087;27;43037;-73
2023/06/01 02:38:50;;;;;;;;;;;24.80;46.10;;;;;;5104648;27;43555;-74
2023/06/01 02:41:16;;;;;;;;;;;24.90;46.20;;;;;;5102902;27;43131;-79
2023/06/01 02:43:41;;;;;;;;;;;24.80;45.60;;;;;;5085348;27;43580;-80
2023/06/01 02:46:07;;;;;;;;;;;24.80;46.10;;;;;;5096994;27;43718;-80
2023/06/01 02:48:32;;;;;;;;;;;24.80;46.10;;;;;;5075293;27;42982;-80
2023/06/01 02:50:58;;;;;;;;;;;24.80;45.60;;;;;;5090984;27;42929;-78
2023/06/01 02:53:26;;;;;;;;;;;24.90;45.70;;;;;;5097174;27;42930;-80
2023/06/01 02:55:52;;;;;;;;;;;24.90;46.10;;;;;;5107228;27;43140;-80
2023/06/01 02:58:18;;;;;;;;;;;24.80;45.60;;;;;;5100458;27;42970;-80
2023/06/01 03:00:43;;;;;;;;;;;24.80;45.70;;;;;;5086671;27;42950;-80
2023/06/01 03:03:09;;;;;;;;;;;24.80;45.80;;;;;;5085954;27;43972;-80
2023/06/01 03:05:35;;;;;;;;;;;24.80;46.30;;;;;;5086994;27;42922;-80
2023/06/01 03:08:05;;;;;;;;;;;24.80;46.30;;;;;;5101197;27;42966;-79
2023/06/01 03:10:31;;;;;;;;;;;24.80;45.90;;;;;;5101483;27;42994;-80
2023/06/01 03:12:57;;;;;;;;;;;24.80;46.40;;;;;;5107521;27;42857;-80
2023/06/01 03:15:22;;;;;;;;;;;24.80;45.90;;;;;;5086723;27;43062;-80
2023/06/01 03:17:48;;;;;;;;;;;24.80;46.40;;;;;;5086343;27;43484;-80
2023/06/01 03:20:16;;;;;;;;;;;24.80;45.90;;;;;;5087158;27;43000;-79
2023/06/01 03:22:42;;;;;;;;;;;24.80;46.50;;;;;;5086522;27;42947;-79
2023/06/01 03:25:08;;;;;;;;;;;24.80;46.60;;;;;;5100706;27;42942;-80
2023/06/01 03:27:33;;;;;;;;;;;24.80;46.10;;;;;;5086843;27;43944;-80
2023/06/01 03:30:01;;;;;;;;;;;24.70;46.10;;;;;;5067931;28;42899;-79
2023/06/01 03:32:28;;;;;;;;;;;24.80;46.20;;;;;;5098866;27;63600;-79
2023/06/01 03:34:54;;;;;;;;;;;24.80;46.20;;;;;;5092895;27;43018;-79
2023/06/01 03:37:20;;;;;;;;;;;24.80;46.60;;;;;;5105603;27;43934;-78
2023/06/01 03:39:45;;;;;;;;;;;24.70;46.20;;;;;;5086646;27;42855;-81
2023/06/01 03:42:11;;;;;;;;;;;24.80;46.70;;;;;;5099750;27;43042;-79
2023/06/01 03:44:36;;;;;;;;;;;24.80;46.80;;;;;;5105811;27;42910;-80
2023/06/01 03:47:02;;;;;;;;;;;24.80;46.80;;;;;;5093485;27;43023;-80
2023/06/01 03:49:27;;;;;;;;;;;24.70;46.20;;;;;;5100315;27;43939;-79
2023/06/01 03:51:53;;;;;;;;;;;24.80;46.80;;;;;;5098181;27;42979;-80
2023/06/01 03:54:20;;;;;;;;;;;24.80;46.50;;;;;;5087183;27;43627;-80
2023/06/01 03:56:46;;;;;;;;;;;24.80;46.90;;;;;;5086556;27;43266;-79
2023/06/01 03:59:11;;;;;;;;;;;24.80;47.00;;;;;;5092214;27;42792;-80
2023/06/01 04:01:39;;;;;;;;;;;24.70;46.90;;;;;;5096841;27;43890;-77
2023/06/01 04:04:05;;;;;;;;;;;24.70;46.40;;;;;;5100474;27;42925;-76
2023/06/01 04:06:35;;;;;;;;;;;24.70;46.90;;;;;;5087722;27;43170;-78
2023/06/01 04:09:06;;;;;;;;;;;24.70;46.40;;;;;;5087110;27;42970;-79
2023/06/01 04:11:33;;;;;;;;;;;24.70;46.50;;;;;;5099630;27;42919;-75
2023/06/01 04:13:59;;;;;;;;;;;24.70;46.50;;;;;;5104817;27;42928;-78
2023/06/01 04:16:24;;;;;;;;;;;24.80;47.00;;;;;;5102104;27;43667;-77
2023/06/01 04:18:50;;;;;;;;;;;24.70;47.10;;;;;;5097357;27;42954;-79
2023/06/01 04:21:16;;;;;;;;;;;24.70;47.20;;;;;;5094675;27;42907;-80
2023/06/01 04:23:42;;;;;;;;;;;24.70;47.10;;;;;;5098797;27;43098;-79
2023/06/01 04:26:07;;;;;;;;;;;24.80;47.20;;;;;;5092976;27;42952;-79
2023/06/01 04:28:33;;;;;;;;;;;24.80;47.20;;;;;;5090355;27;42943;-79
2023/06/01 04:30:59;;;;;;;;;;;24.80;46.80;;;;;;5099281;27;43332;-77
2023/06/01 04:33:24;;;;;;;;;;;24.80;46.70;;;;;;5090668;27;42950;-80
2023/06/01 04:35:52;;;;;;;;;;;24.80;46.70;;;;;;5094710;27;43172;-79
2023/06/01 04:38:18;;;;;;;;;;;24.80;46.70;;;;;;5097964;27;42898;-80
2023/06/01 04:40:47;;;;;;;;;;;24.90;46.80;;;;;;5095771;27;42957;-79
2023/06/01 04:43:13;;;;;;;;;;;24.80;46.80;;;;;;5094400;27;43046;-81
2023/06/01 04:45:38;;;;;;;;;;;24.80;47.40;;;;;;5093296;27;43890;-79
2023/06/01 04:48:08;;;;;;;;;;;24.90;47.50;;;;;;5099072;27;43225;-79
2023/06/01 04:50:34;;;;;;;;;;;24.90;47.00;;;;;;5094001;27;43690;-81
2023/06/01 04:53:00;;;;;;;;;;;24.90;47.50;;;;;;5099220;27;43865;-81
2023/06/01 04:55:26;;;;;;;;;;;24.80;47.50;;;;;;5093296;27;43419;-83
2023/06/01 04:57:52;;;;;;;;;;;24.90;47.00;;;;;;5094674;27;43196;-79
2023/06/01 05:00:18;;;;;;;;;;;24.90;47.30;;;;;;5079598;27;44882;-92
2023/06/01 05:02:46;;;;;;;;;;;24.90;47.40;;;;;;5082511;27;43191;-81
2023/06/01 05:05:11;;;;;;;;;;;24.90;47.30;;;;;;5083180;27;44681;-81
2023/06/01 05:07:38;;;;;;;;;;;24.90;47.20;;;;;;5072920;27;43232;-95
2023/06/01 05:10:08;;;;;;;;;;;24.70;47.10;;;;;;5099055;27;43501;-89
2023/06/01 05:12:33;;;;;;;;;;;25.00;47.20;;;;;;5082280;27;42872;-88
2023/06/01 05:14:59;;;;;;;;;;;24.90;47.10;;;;;;5082248;27;44590;-84
2023/06/01 05:17:25;;;;;;;;;;;24.90;47.10;;;;;;5096405;27;42966;-82
2023/06/01 05:19:51;;;;;;;;;;;25.00;47.20;;;;;;5093860;27;43284;-77
2023/06/01 05:22:16;;;;;;;;;;;25.00;47.70;;;;;;5093988;27;43104;-87
2023/06/01 05:24:42;;;;;;;;;;;23.50;46.90;;;;;;5095026;27;43441;-88
2023/06/01 05:27:07;;;;;;;;;;;25.00;47.80;;;;;;5094284;27;42946;-87
2023/06/01 05:29:33;;;;;;;;;;;25.00;47.40;;;;;;5093696;27;44469;-92
2023/06/01 05:31:59;;;;;;;;;;;25.00;47.40;;;;;;5095083;27;43095;-83
2023/06/01 05:34:24;;;;;;;;;;;24.90;47.40;;;;;;5079147;27;44856;-82
2023/06/01 05:36:50;;;;;;;;;;;24.80;47.30;;;;;;5098109;27;43170;-84
2023/06/01 05:39:16;;;;;;;;;;;25.00;47.40;;;;;;5094120;27;42934;-84
2023/06/01 05:41:42;;;;;;;;;;;25.00;47.30;;;;;;5070228;27;42923;-90
2023/06/01 05:44:07;;;;;;;;;;;25.00;47.30;;;;;;5095749;27;44296;-85
2023/06/01 05:46:33;;;;;;;;;;;25.00;47.30;;;;;;5103795;27;43014;-91
2023/06/01 05:48:58;;;;;;;;;;;25.00;47.80;;;;;;5101257;27;43263;-90
2023/06/01 05:51:24;;;;;;;;;;;25.00;47.60;;;;;;5103335;27;43049;-91
2023/06/01 05:53:49;;;;;;;;;;;25.00;47.60;;;;;;5097638;27;43604;-85
2023/06/01 05:56:16;;;;;;;;;;;25.00;47.10;;;;;;5093444;27;43320;-89
2023/06/01 05:58:42;;;;;;;;;;;25.00;47.60;;;;;;5085698;27;43412;-88
2023/06/01 06:01:07;;;;;;;;;;;25.00;47.10;;;;;;5086104;27;43035;-85
2023/06/01 06:03:33;;;;;;;;;;;25.10;47.20;;;;;;5081939;27;44684;-91
2023/06/01 06:05:59;;;;;;;;;;;25.10;47.20;;;;;;5086069;27;42981;-90
2023/06/01 06:08:25;;;;;;;;;;;25.00;47.10;;;;;;5085627;27;43086;-88
2023/06/01 06:10:51;;;;;;;;;;;25.00;47.10;;;;;;5103412;27;42957;-82
2023/06/01 06:13:16;;;;;;;;;;;24.90;47.00;;;;;;5089327;27;43909;-91
2023/06/01 06:15:42;;;;;;;;;;;;;;;;;;5103718;27;42921;-88
2023/06/01 06:18:08;;;;;;;;;;;25.10;47.10;;;;;;5090343;27;43914;-88
2023/06/01 06:20:34;;;;;;;;;;;21.90;45.50;;;;;;5095347;27;42925;-85
2023/06/01 06:22:59;;;;;;;;;;;25.10;47.10;;;;;;5085069;27;43089;-90
2023/06/01 06:25:25;;;;;;;;;;;25.10;47.10;;;;;;5085222;27;42930;-90
2023/06/01 06:27:50;;;;;;;;;;;27.90;48.90;;;;;;5096867;27;43509;-86
2023/06/01 06:30:16;;;;;;;;;;;25.10;47.10;;;;;;5093135;27;43115;-90
2023/06/01 06:32:41;;;;;;;;;;;25.10;47.10;;;;;;5102710;27;42948;-86
2023/06/01 06:35:07;;;;;;;;;;;25.10;47.20;;;;;;5103895;27;42970;-91
2023/06/01 06:37:33;;;;;;;;;;;25.10;47.20;;;;;;5100217;27;43477;-89
2023/06/01 06:39:58;;;;;;;;;;;25.10;47.20;;;;;;5085751;27;43029;-87
2023/06/01 06:42:24;;;;;;;;;;;25.00;47.20;;;;;;5087098;27;43704;-89
2023/06/01 06:44:50;;;;;;;;;;;25.00;47.30;;;;;;5104374;27;42918;-90
2023/06/01 06:47:19;;;;;;;;;;;25.10;47.30;;;;;;5089211;27;43185;-89
2023/06/01 06:49:45;;;;;;;;;;;25.10;47.20;;;;;;5065974;28;42899;-89
2023/06/01 06:52:10;;;;;;;;;;;25.10;47.20;;;;;;5097953;27;43812;-83
2023/06/01 06:54:38;;;;;;;;;;;22.50;45.90;;;;;;5084697;27;43181;-84
2023/06/01 06:57:04;;;;;;;;;;;25.10;47.30;;;;;;5079512;27;45280;-87
2023/06/01 06:59:30;;;;;;;;;;;25.00;47.20;;;;;;5085237;27;43003;-87
2023/06/01 07:01:56;;;;;;;;;;;24.90;47.20;;;;;;5097357;27;43877;-87
2023/06/01 07:04:21;;;;;;;;;;;25.00;47.30;;;;;;5084538;27;42900;-88
2023/06/01 07:06:47;;;;;;;;;;;25.10;47.40;;;;;;5084066;27;42974;-89
2023/06/01 07:09:12;;;;;;;;;;;25.10;47.40;;;;;;5084288;27;43398;-89
2023/06/01 07:11:39;;;;;;;;;;;25.10;47.40;;;;;;5086256;27;43477;-86
2023/06/01 07:14:05;;;;;;;;;;;25.10;47.40;;;;;;5104386;27;42976;-88
2023/06/01 07:16:30;;;;;;;;;;;25.10;47.40;;;;;;5103302;27;42969;-80
2023/06/01 07:18:56;;;;;;;;;;;25.00;47.30;;;;;;5077532;28;42876;-83
2023/06/01 07:21:22;;;;;;;;;;;25.10;47.20;;;;;;5083689;27;43100;-90
2023/06/01 07:23:47;;;;;;;;;;;25.10;47.00;;;;;;5091780;27;42939;-88
2023/06/01 07:26:13;;;;;;;;;;;25.10;47.00;;;;;;5089453;27;43072;-89
2023/06/01 07:28:41;;;;;;;;;;;;;;;;;;5103192;27;43013;-87
2023/06/01 07:31:07;;;;;;;;;;;25.10;46.70;;;;;;5101068;27;43071;-89
2023/06/01 07:33:35;;;;;;;;;;;25.10;46.70;;;;;;5103062;27;43020;-90
2023/06/01 07:36:01;;;;;;;;;;;25.10;46.70;;;;;;5089871;27;44112;-89
2023/06/01 07:38:27;;;;;;;;;;;25.10;46.50;;;;;;5098027;27;42893;-88
2023/06/01 07:40:52;;;;;;;;;;;25.10;46.50;;;;;;5088822;27;42962;-90
2023/06/01 07:43:18;;;;;;;;;;;25.10;46.50;;;;;;5068259;27;42987;-87
2023/06/01 07:45:43;;;;;;;;;;;25.10;46.40;;;;;;5103869;27;42919;-86
2023/06/01 07:48:09;;;;;;;;;;;25.10;46.40;;;;;;5099155;27;42965;-88
2023/06/01 07:50:34;;;;;;;;;;;25.10;46.30;;;;;;5088394;27;42885;-85
2023/06/01 07:53:00;;;;;;;;;;;25.10;46.30;;;;;;5108450;27;43059;-89
2023/06/01 07:55:25;;;;;;;;;;;25.00;46.30;;;;;;5092538;27;43009;-88
2023/06/01 07:57:51;;;;;;;;;;;25.10;46.30;;;;;;5086901;27;42930;-84
2023/06/01 08:00:18;;;;;;;;;;;25.10;46.30;;;;;;5088073;27;43783;-88
2023/06/01 08:02:43;;;;;;;;;;;25.10;46.20;;;;;;5095330;27;43038;-87
2023/06/01 08:05:12;;;;;;;;;;;25.20;46.20;;;;;;5106159;27;43398;-90
2023/06/01 08:07:38;;;;;;;;;;;25.20;46.10;;;;;;5098399;27;42907;-89
2023/06/01 08:10:08;;;;;;;;;;;25.10;46.00;;;;;;5100287;27;44098;-81
2023/06/01 08:12:34;;;;;;;;;;;25.20;46.40;;;;;;5106722;27;43038;-89
2023/06/01 08:15:00;;;;;;;;;;;25.10;45.90;;;;;;5093346;27;43447;-85
2023/06/01 08:17:25;;;;;;;;;;;25.20;45.90;;;;;;5106371;27;42851;-84
2023/06/01 08:19:52;;;;;;;;;;;25.20;45.80;;;;;;5102910;27;43636;-87
2023/06/01 08:22:20;;;;;;;;;;;25.20;45.80;;;;;;5096186;27;42932;-79
2023/06/01 08:24:47;;;;;;;;;;;25.20;46.20;;;;;;5102750;27;42863;-89
2023/06/01 08:27:19;;;;;;;;;;;25.20;46.20;;;;;;5087371;27;42926;-90
2023/06/01 08:29:46;;;;;;;;;;;25.20;45.60;;;;;;5102137;27;44623;-84
2023/06/01 08:32:11;;;;;;;;;;;25.20;46.10;;;;;;5106080;27;42961;-88
2023/06/01 08:34:37;;;;;;;;;;;25.20;46.00;;;;;;5101101;27;43267;-87
2023/06/01 08:37:02;;;;;;;;;;;25.20;45.50;;;;;;5086882;27;42919;-85
2023/06/01 08:39:28;;;;;;;;;;;25.20;46.00;;;;;;5090362;27;42939;-88
2023/06/01 08:41:58;;;;;;;;;;;25.20;46.00;;;;;;5096102;27;43037;-77
2023/06/01 08:44:26;;;;;;;;;;;25.20;45.90;;;;;;5091281;27;43233;-82
2023/06/01 08:46:52;;;;;;;;;;;25.20;45.40;;;;;;5105990;27;42970;-88
2023/06/01 08:49:19;;;;;;;;;;;25.20;45.40;;;;;;5088311;27;43687;-84
2023/06/01 08:51:46;;;;;;;;;;;25.30;45.40;;;;;;5086895;27;42927;-89
2023/06/01 08:54:12;;;;;;;;;;;25.20;45.40;;;;;;5091178;27;43024;-89
2023/06/01 08:56:42;;;;;;;;;;;25.20;45.40;;;;;;5094228;27;43118;-80
2023/06/01 08:59:09;;;;;;;;;;;25.30;45.40;;;;;;5099418;27;43644;-87
2023/06/01 09:01:35;;;;;;;;;;;25.30;45.90;;;;;;5098945;27;42959;-85
2023/06/01 09:04:01;;;;;;;;;;;25.30;45.30;;;;;;5086408;27;44205;-80
2023/06/01 09:06:26;;;;;;;;;;;25.30;45.70;;;;;;5086059;27;42917;-89
2023/06/01 09:08:52;;;;;;;;;;;25.30;45.70;;;;;;5085602;27;43672;-88
2023/06/01 09:11:18;;;;;;;;;;;25.30;45.20;;;;;;5086478;27;42929;-90
2023/06/01 09:13:44;;;;;;;;;;;25.30;45.10;;;;;;5086174;27;42993;-84
2023/06/01 09:16:10;;;;;;;;;;;25.30;45.10;;;;;;5086166;27;43052;-86
2023/06/01 09:18:36;;;;;;;;;;;25.40;45.60;;;;;;5091184;27;43402;-87
2023/06/01 09:21:15;;;;;;;;;;;23.70;44.10;;;;;;5093226;27;43438;-86
2023/06/01 09:23:42;;;;;;;;;;;25.40;45.00;;;;;;5085302;27;43566;-88
2023/06/01 09:26:11;;;;;;;;;;;25.30;45.00;;;;;;5086789;27;43050;-86
2023/06/01 09:28:54;;;;;;;;;;;25.30;45.40;;;;;;5104818;27;43898;-90
2023/06/01 09:31:35;;;;;;;;;;;25.30;44.90;;;;;;5100176;27;42874;-90
2023/06/01 09:34:04;;;;;;;;;;;25.30;45.00;;;;;;5097584;27;42905;-84
2023/06/01 09:36:29;;;;;;;;;;;25.40;45.50;;;;;;5086913;27;43060;-89
2023/06/01 09:39:06;;;;;;;;;;;25.30;45.30;;;;;;5097501;27;43362;-89
2023/06/01 09:41:45;;;;;;;;;;;25.40;45.00;;;;;;5085552;27;43274;-88
2023/06/01 09:44:11;;;;;;;;;;;25.30;45.40;;;;;;5089341;27;43849;-89
2023/06/01 09:46:47;;;;;;;;;;;25.40;45.50;;;;;;5106291;27;42881;-84
2023/06/01 09:49:18;;;;;;;;;;;25.40;45.50;;;;;;5087999;27;44675;-88
2023/06/01 09:51:43;;;;;;;;;;;25.30;44.90;;;;;;5085573;27;42925;-79
2023/06/01 09:54:09;;;;;;;;;;;25.30;44.90;;;;;;5103018;27;44462;-84
2023/06/01 09:56:44;;;;;;;;;;;25.30;44.90;;;;;;5086550;27;42939;-90
2023/06/01 09:59:10;;;;;;;;;;;25.40;45.40;;;;;;5097581;27;43358;-82
2023/06/01 10:01:36;;;;;;;;;;;25.40;45.40;;;;;;5098069;27;42990;-90
2023/06/01 10:04:04;;;;;;;;;;;25.40;45.00;;;;;;5086021;27;43005;-88
2023/06/01 10:06:33;;;;;;;;;;;25.30;45.40;;;;;;5085905;27;42956;-90
2023/06/01 10:08:59;;;;;;;;;;;25.40;45.00;;;;;;5091886;27;43311;-88
2023/06/01 10:11:26;;;;;;;;;;;25.40;45.40;;;;;;5091130;27;43654;-87
2023/06/01 10:13:51;;;;;;;;;;;25.40;45.00;;;;;;5085569;27;43389;-80
2023/06/01 10:16:17;;;;;;;;;;;25.40;44.90;;;;;;5085175;27;43084;-90
2023/06/01 10:18:44;;;;;;;;;;;25.40;45.40;;;;;;5084854;27;42937;-88
2023/06/01 10:21:09;;;;;;;;;;;25.40;45.00;;;;;;5085120;27;42830;-90
2023/06/01 10:23:35;;;;;;;;;;;25.40;45.50;;;;;;5084507;27;42807;-91
2023/06/01 10:26:05;;;;;;;;;;;25.40;45.50;;;;;;5098222;27;42918;-90
2023/06/01 10:28:30;;;;;;;;;;;25.40;45.50;;;;;;5096942;27;43791;-90
2023/06/01 10:31:14;;;;;;;;;;;25.40;45.50;;;;;;5099233;27;42882;-90
2023/06/01 10:34:00;;;;;;;;;;;25.40;45.60;;;;;;5094677;27;43709;-90
2023/06/01 10:36:45;;;;;;;;;;;25.40;45.60;;;;;;5090791;27;43081;-85
2023/06/01 10:39:24;;;;;;;;;;;25.40;45.60;;;;;;5090449;27;42948;-88
2023/06/01 10:41:50;;;;;;;;;;;25.40;45.60;;;;;;5093590;27;42792;-90
2023/06/01 10:44:34;;;;;;;;;;;25.40;45.10;;;;;;5087755;27;43262;-90
2023/06/01 10:46:59;;;;;;;;;;;25.40;45.60;;;;;;5105135;27;43070;-90
2023/06/01 10:49:45;;;;;;;;;;;25.40;45.20;;;;;;5084942;27;43130;-90
2023/06/01 10:52:33;;;;;;;;;;;25.40;45.60;;;;;;5084103;27;43027;-89
2023/06/01 10:55:10;;;;;;;;;;;25.40;45.60;;;;;;5084774;27;42967;-77
2023/06/01 10:57:36;;;;;;;;;;;25.40;45.60;;;;;;5085350;27;43096;-91
2023/06/01 11:00:08;;;;;;;;;;;25.40;45.20;;;;;;5105435;27;42839;-90
2023/06/01 11:02:33;;;;;;;;;;;25.50;45.70;;;;;;5091550;27;42945;-88
2023/06/01 11:05:17;;;;;;;;;;;25.50;45.20;;;;;;5103236;27;44053;-85
2023/06/01 11:07:43;;;;;;;;;;;25.50;45.70;;;;;;5084651;27;42916;-87
2023/06/01 11:10:08;;;;;;;;;;;25.40;45.20;;;;;;5086976;27;42950;-90
2023/06/01 11:12:55;;;;;;;;;;;25.50;45.80;;;;;;5088481;27;42971;-90
2023/06/01 11:15:21;;;;;;;;;;;25.50;45.30;;;;;;5088671;27;43331;-90
2023/06/01 11:17:47;;;;;;;;;;;25.50;45.80;;;;;;5088421;27;42871;-90
2023/06/01 11:20:13;;;;;;;;;;;25.40;45.60;;;;;;5082635;28;44429;-89
2023/06/01 11:22:39;;;;;;;;;;;25.40;45.60;;;;;;5099496;27;42982;-85
2023/06/01 11:25:06;;;;;;;;;;;25.30;45.00;;;;;;5087973;27;43021;-89
2023/06/01 11:27:32;;;;;;;;;;;25.50;45.60;;;;;;5088753;27;43003;-83
2023/06/01 11:29:57;;;;;;;;;;;25.50;45.10;;;;;;5100912;27;44002;-90
2023/06/01 11:32:25;;;;;;;;;;;25.50;45.10;;;;;;5088704;27;42986;-87
2023/06/01 11:34:51;;;;;;;;;;;25.50;45.60;;;;;;5106503;27;42996;-88
2023/06/01 11:37:18;;;;;;;;;;;25.50;45.10;;;;;;5094868;27;42879;-89
2023/06/01 11:39:45;;;;;;;;;;;25.50;45.50;;;;;;5088769;27;43737;-88
2023/06/01 11:42:15;;;;;;;;;;;25.50;45.50;;;;;;5089192;27;43118;-90
2023/06/01 11:44:57;;;;;;;;;;;25.50;45.00;;;;;;5075123;27;44475;-85
2023/06/01 11:47:27;;;;;;;;;;;25.50;45.50;;;;;;5090565;27;43107;-86
2023/06/01 11:49:53;;;;;;;;;;;25.50;45.10;;;;;;5086454;27;42988;-86
2023/06/01 11:52:19;;;;;;;;;;;25.50;45.60;;;;;;5087931;27;43088;-77
2023/06/01 11:54:44;;;;;;;;;;;25.50;45.10;;;;;;5087375;27;43945;-85
2023/06/01 11:57:10;;;;;;;;;;;25.50;45.10;;;;;;5086370;27;42941;-79
2023/06/01 11:59:42;;;;;;;;;;;25.50;45.10;;;;;;5096806;27;43489;-90
2023/06/01 12:02:24;;;;;;;;;;;25.50;45.50;;;;;;5107181;27;43055;-83
2023/06/01 12:05:08;;;;;;;;;;;25.50;45.50;;;;;;5107173;27;42952;-82
2023/06/01 12:07:44;;;;;;;;;;;25.50;45.00;;;;;;5087254;27;42858;-85
2023/06/01 12:10:16;;;;;;;;;;;25.50;45.00;;;;;;5086818;27;43325;-89
2023/06/01 12:12:43;;;;;;;;;;;25.50;45.30;;;;;;5102286;27;42997;-90
2023/06/01 12:15:11;;;;;;;;;;;24.70;45.00;;;;;;5112710;27;43345;-91
2023/06/01 12:18:03;;;;;;;;;;;25.50;45.50;;;;;;5104110;27;42977;-87
2023/06/01 12:20:29;;;;;;;;;;;25.50;45.50;;;;;;5100674;27;43242;-87
2023/06/01 12:22:56;;;;;;;;;;;25.40;45.20;;;;;;5101606;27;43033;-78
2023/06/01 12:25:25;;;;;;;;;;;25.40;45.70;;;;;;5097390;27;42863;-78
2023/06/01 12:28:07;;;;;;;;;;;25.40;45.80;;;;;;5097911;27;42948;-81
2023/06/01 12:30:32;;;;;;;;;;;25.40;45.80;;;;;;5096634;27;43705;-79
2023/06/01 12:32:58;;;;;;;;;;;25.40;45.80;;;;;;5106053;27;43149;-79
2023/06/01 12:35:24;;;;;;;;;;;25.40;45.40;;;;;;5094451;27;42908;-79
2023/06/01 12:38:06;;;;;;;;;;;25.40;45.80;;;;;;5084947;27;42966;-79
2023/06/01 12:40:33;;;;;;;;;;;25.40;45.30;;;;;;5094316;27;43053;-79
2023/06/01 12:42:59;;;;;;;;;;;25.30;45.70;;;;;;5098067;27;43092;-79
2023/06/01 12:45:24;;;;;;;;;;;25.30;45.60;;;;;;5099515;27;43497;-79
2023/06/01 12:47:50;;;;;;;;;;;25.30;45.60;;;;;;5099835;27;42938;-79
2023/06/01 12:50:15;;;;;;;;;;;25.40;45.30;;;;;;5098211;27;43694;-78
2023/06/01 12:52:44;;;;;;;;;;;25.30;45.80;;;;;;5087364;27;43519;-78
2023/06/01 12:55:10;;;;;;;;;;;25.40;45.40;;;;;;5088438;27;43609;-79
2023/06/01 12:57:39;;;;;;;;;;;25.40;45.30;;;;;;5087694;27;43175;-79
2023/06/01 13:00:06;;;;;;;;;;;25.40;45.80;;;;;;5088364;27;43502;-80
2023/06/01 13:02:32;;;;;;;;;;;25.30;45.00;;;;;;5089203;27;42867;-78
2023/06/01 13:04:58;;;;;;;;;;;25.40;46.00;;;;;;5088438;27;42983;-78
2023/06/01 13:07:23;;;;;;;;;;;25.40;44.80;;;;;;5073859;27;43129;-78
2023/06/01 13:09:49;;;;;;;;;;;25.40;45.30;;;;;;5098331;27;44252;-79
2023/06/01 13:12:15;;;;;;;;;;;25.40;45.30;;;;;;5096139;27;42976;-78
2023/06/01 13:14:40;;;;;;;;;;;25.40;45.30;;;;;;5095092;27;42959;-79
2023/06/01 13:17:06;;;;;;;;;;;25.40;45.30;;;;;;5094209;27;42892;-79
2023/06/01 13:19:31;;;;;;;;;;;25.40;44.90;;;;;;5096766;27;43971;-81
2023/06/01 13:21:57;;;;;;;;;;;25.40;45.40;;;;;;5097007;27;42901;-78
2023/06/01 13:24:23;;;;;;;;;;;25.30;44.90;;;;;;5100416;27;42861;-79
2023/06/01 13:26:49;;;;;;;;;;;25.40;45.30;;;;;;5102870;27;43057;-79
2023/06/01 13:29:14;;;;;;;;;;;25.40;45.20;;;;;;5076309;27;42906;-78
2023/06/01 13:31:40;;;;;;;;;;;25.40;45.20;;;;;;5089343;27;42871;-80
2023/06/01 13:34:05;;;;;;;;;;;25.40;44.80;;;;;;5093855;27;42826;-79
2023/06/01 13:36:31;;;;;;;;;;;25.40;44.80;;;;;;5101425;27;42954;-79
2023/06/01 13:38:57;;;;;;;;;;;25.40;45.30;;;;;;5086269;27;43162;-78
2023/06/01 13:41:23;;;;;;;;;;;25.40;45.20;;;;;;5085938;27;42958;-79
2023/06/01 13:43:48;;;;;;;;;;;25.40;45.20;;;;;;5104659;27;42969;-78
2023/06/01 13:46:14;;;;;;;;;;;25.40;45.30;;;;;;5099037;27;42842;-78
2023/06/01 13:48:40;;;;;;;;;;;25.40;45.30;;;;;;5084032;27;42964;-78
2023/06/01 13:51:06;;;;;;;;;;;25.40;45.20;;;;;;5088098;27;42945;-77
2023/06/01 13:53:31;;;;;;;;;;;25.40;44.50;;;;;;5098284;27;43735;-78
2023/06/01 13:55:58;;;;;;;;;;;25.40;44.50;;;;;;5086829;27;43037;-78
2023/06/01 13:58:24;;;;;;;;;;;25.40;44.90;;;;;;5098302;27;42868;-79
2023/06/01 14:00:50;;;;;;;;;;;25.50;44.80;;;;;;5088146;27;42990;-79
2023/06/01 14:03:15;;;;;;;;;;;25.40;44.40;;;;;;5099878;27;43831;-79
2023/06/01 14:05:41;;;;;;;;;;;25.40;44.50;;;;;;5099637;27;43022;-78
2023/06/01 14:08:07;;;;;;;;;;;25.40;45.00;;;;;;5101296;27;42998;-78
2023/06/01 14:10:34;;;;;;;;;;;25.40;45.10;;;;;;5089823;27;43002;-79
2023/06/01 14:13:00;;;;;;;;;;;25.50;44.30;;;;;;5093235;27;43610;-78
2023/06/01 14:15:26;;;;;;;;;;;25.50;44.30;;;;;;5094308;27;43052;-78
2023/06/01 14:17:51;;;;;;;;;;;25.50;44.40;;;;;;5070080;27;43902;-79
2023/06/01 14:20:17;;;;;;;;;;;25.50;44.50;;;;;;5087174;27;43142;-79